EDHL/LBC METAR and TAF weather

Enter ICAO airport designator
Station Type Date Time Source
EDHL METAR 2019/10/18 10:50 UTC NOAA

EDHL 181050Z 17006KT 130V210 9999 FEW022 16/12 Q1006


Station Type Date Time Source
EDHL Decoded METAR 2019/10/18 10:50 UTC NOAA

Luebeck-Blankensee, Germany (EDHL) 53-49N 010-42E 15M
Oct 18, 2019 - 06:50 AM EDT / 2019.10.18 1050 UTC
Wind: from the S (170 degrees) at 7 MPH (6 KT) (direction variable):0
Visibility: greater than 7 mile(s):0
Sky conditions: mostly clear
Temperature: 60 F (16 C)
Dew Point: 53 F (12 C)
Relative Humidity: 77%
Pressure (altimeter): 29.71 in. Hg (1006 hPa)
ob: EDHL 181050Z 17006KT 130V210 9999 FEW022 16/12 Q1006
cycle: 11

Station Type Date Time Source
EDHL TAF 2010/02/22 14:20 UTC NOAA

METAR EDHL 221420Z 15004KT 110V180 9999 FEW039 SCT120 05/02 Q0990
RMK X

Example: see airport list